createdAt,value
2023-07-29T00:00:14.623Z,3.91
2023-07-29T00:02:42.621Z,4.04
2023-07-29T00:05:10.548Z,4.23
2023-07-29T00:07:38.270Z,4.08
2023-07-29T00:10:06.719Z,4.02
2023-07-29T00:12:35.795Z,3.98
2023-07-29T00:15:03.610Z,3.97
2023-07-29T00:17:31.336Z,3.75
2023-07-29T00:19:59.143Z,4.09
2023-07-29T00:22:26.837Z,3.88
2023-07-29T00:24:56.165Z,3.72
2023-07-29T00:27:23.888Z,3.63
2023-07-29T00:29:53.218Z,3.58
2023-07-29T00:32:20.964Z,3.61
2023-07-29T00:34:48.717Z,3.57
2023-07-29T00:37:16.464Z,3.41
2023-07-29T00:39:44.286Z,3.26
2023-07-29T00:42:12.064Z,3.30
2023-07-29T00:44:39.792Z,3.21
2023-07-29T00:47:09.185Z,2.85
2023-07-29T00:49:36.946Z,2.73
2023-07-29T00:52:04.841Z,2.53
2023-07-29T00:54:33.000Z,2.43
2023-07-29T00:57:00.759Z,2.32
2023-07-29T00:59:29.245Z,2.22
2023-07-29T01:01:57.326Z,2.20
2023-07-29T01:04:26.461Z,1.95
2023-07-29T01:07:01.592Z,2.24
2023-07-29T01:09:43.995Z,1.99
2023-07-29T01:12:20.836Z,1.96
2023-07-29T01:14:53.293Z,2.04
2023-07-29T01:17:25.091Z,1.95
2023-07-29T01:20:02.321Z,1.98
2023-07-29T01:22:30.775Z,2.06
2023-07-29T01:25:00.192Z,2.12
2023-07-29T01:27:28.175Z,1.99
2023-07-29T01:29:57.870Z,1.92
2023-07-29T01:32:30.630Z,1.89
2023-07-29T01:35:02.553Z,1.79
2023-07-29T01:37:33.209Z,1.93
2023-07-29T01:40:03.119Z,1.85
2023-07-29T01:42:31.836Z,1.85
2023-07-29T01:44:59.590Z,1.89
2023-07-29T01:47:27.323Z,1.88
2023-07-29T01:49:55.205Z,1.92
2023-07-29T01:52:23.881Z,2.02
2023-07-29T01:54:52.017Z,1.68
2023-07-29T01:57:21.074Z,1.88
2023-07-29T01:59:48.979Z,2.00
2023-07-29T02:02:16.732Z,1.98
2023-07-29T02:04:44.501Z,1.82
2023-07-29T02:07:12.299Z,1.84
2023-07-29T02:09:40.095Z,1.78
2023-07-29T02:12:08.662Z,1.71
2023-07-29T02:14:37.915Z,1.82
2023-07-29T02:17:05.909Z,1.75
2023-07-29T02:19:33.781Z,1.72
2023-07-29T02:22:01.598Z,1.72
2023-07-29T02:24:29.428Z,1.53
2023-07-29T02:26:57.341Z,1.68
2023-07-29T02:29:26.146Z,1.59
2023-07-29T02:31:55.290Z,1.72
2023-07-29T02:34:23.029Z,1.73
2023-07-29T02:36:50.775Z,1.92
2023-07-29T02:39:18.522Z,1.84
2023-07-29T02:41:46.378Z,1.98
2023-07-29T02:44:14.117Z,2.16
2023-07-29T02:46:41.884Z,2.38
2023-07-29T02:49:10.992Z,2.46
2023-07-29T02:51:38.751Z,2.54
2023-07-29T02:54:06.473Z,2.72
2023-07-29T02:56:34.711Z,3.06
2023-07-29T02:59:02.739Z,2.89
2023-07-29T03:01:30.499Z,2.95
2023-07-29T03:03:58.376Z,2.99
2023-07-29T03:06:27.513Z,3.10
2023-07-29T03:08:55.226Z,3.19
2023-07-29T03:11:22.993Z,3.58
2023-07-29T03:13:50.689Z,3.46
2023-07-29T03:16:19.611Z,3.51
2023-07-29T03:18:47.384Z,3.65
2023-07-29T03:21:15.227Z,3.66
2023-07-29T03:23:47.405Z,3.60
2023-07-29T03:26:15.198Z,3.75
2023-07-29T03:28:46.010Z,4.22
2023-07-29T03:31:13.884Z,4.36
2023-07-29T03:33:41.641Z,3.86
2023-07-29T03:36:09.392Z,4.39
2023-07-29T03:38:41.164Z,4.66
2023-07-29T03:41:10.868Z,4.45
2023-07-29T03:43:38.801Z,4.43
2023-07-29T03:46:07.820Z,4.72
2023-07-29T03:48:37.553Z,4.91
2023-07-29T03:51:05.484Z,4.65
2023-07-29T03:53:33.212Z,4.84
2023-07-29T03:56:01.065Z,5.38
2023-07-29T03:58:30.164Z,5.42
2023-07-29T04:00:57.887Z,4.81
2023-07-29T04:03:25.655Z,5.29
2023-07-29T04:05:53.498Z,4.83
2023-07-29T04:08:21.250Z,5.35
2023-07-29T04:10:49.111Z,5.48
2023-07-29T04:13:16.860Z,5.54
2023-07-29T04:15:46.043Z,5.44
2023-07-29T04:18:13.864Z,5.54
2023-07-29T04:20:41.614Z,5.31
2023-07-29T04:23:09.392Z,5.52
2023-07-29T04:25:37.135Z,5.71
2023-07-29T04:28:06.292Z,5.78
2023-07-29T04:30:34.091Z,6.15
2023-07-29T04:33:03.370Z,6.03
2023-07-29T04:35:31.259Z,6.22
2023-07-29T04:37:59.048Z,6.07
2023-07-29T04:40:26.764Z,5.79
2023-07-29T04:42:54.512Z,5.91
2023-07-29T04:45:22.318Z,6.02
2023-07-29T04:47:52.875Z,5.64
2023-07-29T04:50:22.024Z,6.09
2023-07-29T04:52:49.769Z,6.41
2023-07-29T04:55:20.603Z,5.74
2023-07-29T04:57:48.377Z,5.34
2023-07-29T05:00:18.583Z,5.52
2023-07-29T05:02:46.420Z,5.76
2023-07-29T05:05:14.112Z,5.63
2023-07-29T05:07:43.223Z,5.28
2023-07-29T05:10:12.501Z,5.98
2023-07-29T05:12:40.283Z,5.98
2023-07-29T05:15:08.720Z,6.32
2023-07-29T05:17:36.485Z,5.93
2023-07-29T05:20:04.405Z,6.04
2023-07-29T05:22:32.162Z,6.04
2023-07-29T05:25:01.248Z,5.83
2023-07-29T05:27:29.027Z,5.83
2023-07-29T05:29:56.816Z,5.93
2023-07-29T05:32:24.777Z,6.24
2023-07-29T05:34:52.463Z,5.97
2023-07-29T05:37:20.207Z,5.93
2023-07-29T05:39:47.949Z,6.48
2023-07-29T05:42:17.037Z,6.10
2023-07-29T05:44:44.892Z,5.79
2023-07-29T05:47:12.636Z,6.35
2023-07-29T05:49:40.559Z,6.75
2023-07-29T05:52:08.618Z,6.29
2023-07-29T05:54:36.425Z,6.12
2023-07-29T05:57:04.185Z,6.41
2023-07-29T05:59:33.319Z,6.12
2023-07-29T06:02:01.030Z,5.85
2023-07-29T06:04:28.880Z,5.61
2023-07-29T06:06:57.128Z,5.60
2023-07-29T06:09:26.479Z,5.70
2023-07-29T06:11:55.903Z,6.08
2023-07-29T06:14:23.898Z,5.91
2023-07-29T06:16:53.030Z,5.68
2023-07-29T06:19:20.861Z,5.70
2023-07-29T06:21:48.589Z,5.43
2023-07-29T06:24:16.372Z,5.68
2023-07-29T06:26:44.107Z,6.06
2023-07-29T06:29:11.865Z,6.22
2023-07-29T06:31:39.545Z,6.07
2023-07-29T06:34:08.649Z,6.08
2023-07-29T06:36:36.691Z,5.96
2023-07-29T06:39:04.965Z,6.42
2023-07-29T06:41:32.927Z,6.46
2023-07-29T06:44:00.681Z,6.30
2023-07-29T06:46:28.452Z,6.31
2023-07-29T06:48:56.319Z,6.64
2023-07-29T06:51:25.434Z,6.39
2023-07-29T06:53:53.459Z,6.09
2023-07-29T06:56:21.176Z,6.20
2023-07-29T06:58:48.936Z,6.56
2023-07-29T07:01:16.703Z,5.76
2023-07-29T07:03:44.550Z,5.16
2023-07-29T07:06:12.437Z,5.68
2023-07-29T07:08:42.874Z,5.39
2023-07-29T07:11:10.616Z,5.37
2023-07-29T07:13:38.373Z,4.98
2023-07-29T07:16:06.355Z,4.38
2023-07-29T07:18:34.199Z,3.77
2023-07-29T07:21:01.947Z,3.51
2023-07-29T07:23:29.740Z,3.59
2023-07-29T07:25:58.828Z,4.02
2023-07-29T07:28:26.613Z,3.77
2023-07-29T07:30:56.796Z,3.56
2023-07-29T07:33:24.720Z,3.40
2023-07-29T07:35:52.453Z,3.15
2023-07-29T07:38:20.321Z,2.92
2023-07-29T07:40:55.054Z,2.85
2023-07-29T07:43:24.179Z,2.84
2023-07-29T07:45:52.076Z,2.85
2023-07-29T07:48:21.238Z,2.76
2023-07-29T07:50:48.969Z,2.82
2023-07-29T07:53:16.724Z,2.89
2023-07-29T07:55:44.506Z,2.90
2023-07-29T07:58:12.228Z,2.91
2023-07-29T08:00:41.384Z,2.57
2023-07-29T08:03:09.119Z,2.90
2023-07-29T08:05:36.901Z,2.62
2023-07-29T08:08:04.797Z,2.81
2023-07-29T08:10:32.809Z,3.00
2023-07-29T08:13:00.554Z,3.33
2023-07-29T08:15:28.318Z,3.32
2023-07-29T08:17:57.493Z,3.60
2023-07-29T08:20:25.248Z,3.71
2023-07-29T08:22:53.011Z,3.68
2023-07-29T08:25:20.717Z,4.01
2023-07-29T08:27:48.474Z,4.30
2023-07-29T08:30:17.100Z,4.62
2023-07-29T08:32:45.952Z,4.88
2023-07-29T08:35:15.416Z,4.84
2023-07-29T08:37:43.240Z,5.16
2023-07-29T08:40:11.397Z,5.96
2023-07-29T08:42:41.022Z,6.05
2023-07-29T08:45:10.087Z,6.23
2023-07-29T08:47:37.945Z,6.06
2023-07-29T08:50:06.172Z,6.94
2023-07-29T08:52:36.677Z,7.14
2023-07-29T08:55:04.812Z,7.11
2023-07-29T08:57:33.157Z,6.76
2023-07-29T09:00:01.011Z,6.23
2023-07-29T09:02:28.996Z,7.33
2023-07-29T09:04:56.799Z,7.42
2023-07-29T09:07:24.652Z,7.40
2023-07-29T09:09:56.216Z,7.33
2023-07-29T09:12:24.026Z,6.80
2023-07-29T09:14:53.883Z,13.71
2023-07-29T09:17:22.988Z,11.12
2023-07-29T09:19:51.026Z,7.26
2023-07-29T09:22:21.919Z,6.60
2023-07-29T09:24:49.715Z,6.07
2023-07-29T09:27:27.969Z,5.80
2023-07-29T09:29:55.908Z,5.38
2023-07-29T09:32:24.828Z,5.23
2023-07-29T09:34:53.075Z,4.91
2023-07-29T09:37:23.503Z,4.79
2023-07-29T09:39:51.859Z,4.41
2023-07-29T09:42:20.472Z,4.37
2023-07-29T09:44:50.897Z,3.99
2023-07-29T09:47:22.514Z,3.55
2023-07-29T09:49:50.324Z,3.10
2023-07-29T09:52:18.437Z,3.18
2023-07-29T09:54:46.914Z,3.06
2023-07-29T09:57:16.174Z,3.14
2023-07-29T09:59:44.038Z,2.99
2023-07-29T10:02:17.962Z,2.56
2023-07-29T10:04:46.097Z,2.16
2023-07-29T10:07:14.334Z,1.90
2023-07-29T10:09:43.018Z,1.71
2023-07-29T10:12:11.882Z,1.78
2023-07-29T10:14:40.578Z,1.55
2023-07-29T10:17:08.328Z,1.57
2023-07-29T10:19:39.401Z,1.61
2023-07-29T10:22:08.485Z,1.62
2023-07-29T10:24:40.222Z,1.58
2023-07-29T10:27:09.181Z,1.51
2023-07-29T10:29:40.672Z,1.42
2023-07-29T10:32:11.166Z,1.43
2023-07-29T10:34:42.094Z,1.22
2023-07-29T10:37:11.212Z,1.35
2023-07-29T10:39:44.078Z,1.22
2023-07-29T10:42:11.844Z,1.48
2023-07-29T10:44:51.330Z,1.46
2023-07-29T10:47:23.097Z,1.35
2023-07-29T10:49:55.345Z,1.26
2023-07-29T10:52:41.524Z,1.32
2023-07-29T10:55:24.543Z,1.36
2023-07-29T10:57:52.463Z,1.43
2023-07-29T11:00:22.006Z,1.45
2023-07-29T11:03:01.538Z,1.45
2023-07-29T11:05:43.830Z,1.48
2023-07-29T11:08:18.823Z,1.33
2023-07-29T11:10:47.742Z,1.47
2023-07-29T11:13:15.911Z,1.35
2023-07-29T11:15:43.845Z,1.51
2023-07-29T11:18:13.021Z,1.46
2023-07-29T11:20:42.135Z,1.55
2023-07-29T11:23:09.858Z,1.37
2023-07-29T11:25:37.604Z,1.48
2023-07-29T11:28:07.437Z,1.64
2023-07-29T11:30:35.493Z,1.43
2023-07-29T11:33:03.393Z,1.57
2023-07-29T11:35:31.178Z,1.56
2023-07-29T11:38:00.507Z,1.51
2023-07-29T11:40:28.220Z,1.68
2023-07-29T11:42:56.630Z,1.79
2023-07-29T11:45:32.530Z,1.85
2023-07-29T11:48:03.718Z,1.63
2023-07-29T11:50:31.691Z,1.74
2023-07-29T11:53:00.935Z,1.96
2023-07-29T11:55:28.760Z,2.09
2023-07-29T11:57:56.730Z,2.08
2023-07-29T12:00:24.542Z,1.95
2023-07-29T12:02:52.932Z,1.46
2023-07-29T12:05:22.704Z,1.11
2023-07-29T12:07:50.743Z,1.19
2023-07-29T12:10:22.336Z,0.67
2023-07-29T12:12:51.409Z,0.70
2023-07-29T12:15:26.302Z,0.68
2023-07-29T12:17:58.688Z,0.57
2023-07-29T12:20:27.341Z,0.79
2023-07-29T12:22:55.963Z,1.09
2023-07-29T12:25:25.433Z,1.01
2023-07-29T12:27:53.220Z,0.86
2023-07-29T12:30:22.704Z,0.82
2023-07-29T12:32:50.574Z,0.98
2023-07-29T12:35:18.458Z,0.93
2023-07-29T12:37:46.196Z,0.83
2023-07-29T12:40:28.453Z,1.08
2023-07-29T12:42:56.403Z,1.04
2023-07-29T12:45:27.636Z,0.90
2023-07-29T12:47:55.906Z,0.95
2023-07-29T12:50:23.805Z,0.92
2023-07-29T12:52:51.547Z,0.99
2023-07-29T12:55:22.051Z,0.99
2023-07-29T12:57:52.992Z,0.92
2023-07-29T13:00:20.807Z,0.82
2023-07-29T13:02:48.661Z,0.87
2023-07-29T13:05:16.517Z,1.00
2023-07-29T13:07:45.098Z,0.93
2023-07-29T13:10:13.070Z,1.03
2023-07-29T13:12:40.834Z,1.00
2023-07-29T13:15:10.282Z,1.00
2023-07-29T13:17:38.670Z,0.98
2023-07-29T13:20:07.279Z,1.00
2023-07-29T13:22:35.101Z,1.07
2023-07-29T13:25:03.098Z,0.96
2023-07-29T13:27:30.958Z,1.24
2023-07-29T13:29:58.689Z,1.14
2023-07-29T13:32:27.930Z,1.16
2023-07-29T13:34:55.696Z,1.12
2023-07-29T13:37:23.419Z,1.20
2023-07-29T13:39:51.111Z,1.42
2023-07-29T13:42:18.906Z,1.49
2023-07-29T13:44:46.636Z,1.40
2023-07-29T13:47:14.339Z,1.39
2023-07-29T13:49:45.697Z,1.43
2023-07-29T13:52:16.691Z,1.46
2023-07-29T13:54:44.395Z,1.40
2023-07-29T13:57:12.423Z,1.45
2023-07-29T13:59:40.215Z,1.75
2023-07-29T14:02:08.132Z,1.69
2023-07-29T14:04:36.002Z,1.81
2023-07-29T14:07:05.827Z,1.79
2023-07-29T14:09:34.040Z,1.91
2023-07-29T14:12:01.756Z,2.02
2023-07-29T14:14:29.511Z,1.99
2023-07-29T14:16:57.214Z,1.98
2023-07-29T14:19:25.051Z,1.93
2023-07-29T14:21:52.806Z,1.86
2023-07-29T14:24:23.826Z,1.98
2023-07-29T14:26:51.602Z,2.07
2023-07-29T14:29:19.653Z,2.14
2023-07-29T14:31:47.594Z,2.15
2023-07-29T14:34:15.413Z,2.05
2023-07-29T14:36:43.163Z,2.30
2023-07-29T14:39:10.867Z,2.25
2023-07-29T14:41:39.969Z,2.18
2023-07-29T14:44:10.741Z,2.39
2023-07-29T14:46:38.751Z,2.23
2023-07-29T14:49:06.697Z,2.31
2023-07-29T14:51:34.572Z,2.22
2023-07-29T14:54:02.282Z,2.26
2023-07-29T14:56:30.029Z,2.34
2023-07-29T14:58:59.114Z,2.33
2023-07-29T15:01:27.081Z,2.38
2023-07-29T15:03:54.909Z,2.27
2023-07-29T15:06:22.767Z,2.23
2023-07-29T15:08:50.516Z,2.37
2023-07-29T15:11:18.318Z,2.39
2023-07-29T15:13:46.021Z,2.60
2023-07-29T15:16:15.183Z,2.54
2023-07-29T15:18:42.928Z,2.34
2023-07-29T15:21:10.649Z,2.29
2023-07-29T15:23:38.365Z,2.72
2023-07-29T15:26:06.142Z,2.54
2023-07-29T15:28:34.039Z,2.52
2023-07-29T15:31:02.019Z,2.20
2023-07-29T15:33:31.240Z,2.29
2023-07-29T15:35:59.063Z,2.24
2023-07-29T15:38:29.701Z,2.24
2023-07-29T15:40:57.493Z,2.51
2023-07-29T15:43:25.625Z,3.36
2023-07-29T15:45:56.127Z,3.12
2023-07-29T15:48:23.841Z,2.76
2023-07-29T15:50:55.974Z,2.42
2023-07-29T15:53:23.698Z,2.27
2023-07-29T15:55:52.343Z,2.46
2023-07-29T15:58:20.090Z,2.39
2023-07-29T16:00:47.850Z,2.16
2023-07-29T16:03:15.610Z,2.33
2023-07-29T16:05:46.002Z,2.60
2023-07-29T16:08:16.845Z,2.46
2023-07-29T16:10:44.644Z,2.49
2023-07-29T16:13:14.140Z,2.45
2023-07-29T16:15:41.952Z,2.29
2023-07-29T16:18:09.719Z,2.36
2023-07-29T16:20:37.526Z,2.31
2023-07-29T16:23:07.070Z,2.38
2023-07-29T16:25:38.644Z,2.33
2023-07-29T16:28:06.507Z,2.45
2023-07-29T16:30:34.291Z,2.50
2023-07-29T16:33:02.095Z,2.28
2023-07-29T16:35:29.891Z,2.30
2023-07-29T16:37:58.720Z,2.43
2023-07-29T16:40:26.475Z,2.62
2023-07-29T16:42:56.672Z,2.47
2023-07-29T16:45:28.402Z,2.64
2023-07-29T16:47:56.837Z,2.59
2023-07-29T16:50:24.760Z,2.48
2023-07-29T16:52:54.946Z,2.51
2023-07-29T16:55:22.885Z,2.48
2023-07-29T16:57:50.618Z,2.61
2023-07-29T17:00:19.770Z,2.46
2023-07-29T17:02:47.647Z,2.47
2023-07-29T17:05:15.489Z,2.28
2023-07-29T17:07:43.214Z,2.75
2023-07-29T17:10:11.237Z,2.86
2023-07-29T17:12:38.984Z,3.91
2023-07-29T17:15:09.207Z,4.93
2023-07-29T17:17:41.532Z,6.91
2023-07-29T17:20:10.027Z,4.99
2023-07-29T17:22:38.831Z,3.09
2023-07-29T17:25:06.972Z,2.44
2023-07-29T17:27:37.797Z,2.54
2023-07-29T17:30:08.953Z,2.46
2023-07-29T17:32:36.707Z,2.24
2023-07-29T17:35:08.511Z,2.34
2023-07-29T17:37:36.741Z,2.56
2023-07-29T17:40:04.677Z,2.41
2023-07-29T17:42:32.921Z,2.56
2023-07-29T17:45:00.651Z,2.75
2023-07-29T17:47:28.451Z,2.54
2023-07-29T17:49:56.337Z,2.63
2023-07-29T17:52:25.445Z,2.65
2023-07-29T17:54:53.185Z,2.93
2023-07-29T17:57:20.895Z,3.10
2023-07-29T17:59:48.580Z,3.08
2023-07-29T18:02:16.372Z,2.92
2023-07-29T18:04:44.683Z,2.64
2023-07-29T18:07:12.441Z,2.88
2023-07-29T18:09:41.596Z,2.79
2023-07-29T18:12:12.453Z,2.75
2023-07-29T18:14:40.220Z,2.81
2023-07-29T18:17:08.046Z,2.80
2023-07-29T18:19:41.850Z,2.65
2023-07-29T18:22:10.213Z,2.75
2023-07-29T18:24:37.911Z,2.91
2023-07-29T18:27:08.841Z,2.64
2023-07-29T18:29:36.578Z,2.43
2023-07-29T18:32:04.446Z,2.35
2023-07-29T18:34:32.991Z,2.32
2023-07-29T18:37:00.731Z,2.44
2023-07-29T18:39:28.583Z,2.48
2023-07-29T18:41:56.362Z,2.39
2023-07-29T18:44:25.560Z,2.56
2023-07-29T18:46:54.728Z,2.40
2023-07-29T18:49:24.500Z,2.49
2023-07-29T18:51:52.532Z,2.54
2023-07-29T18:54:20.269Z,2.57
2023-07-29T18:56:48.344Z,2.41
2023-07-29T18:59:19.829Z,2.52
2023-07-29T19:01:49.299Z,2.65
2023-07-29T19:04:17.368Z,2.38
2023-07-29T19:06:45.238Z,2.75
2023-07-29T19:09:13.333Z,2.45
2023-07-29T19:11:42.102Z,2.82
2023-07-29T19:14:09.878Z,2.67
2023-07-29T19:16:37.997Z,2.85
2023-07-29T19:19:07.398Z,3.68
2023-07-29T19:21:35.105Z,5.68
2023-07-29T19:24:02.948Z,4.27
2023-07-29T19:26:30.737Z,3.92
2023-07-29T19:28:58.798Z,5.86
2023-07-29T19:31:27.088Z,4.94
2023-07-29T19:33:55.927Z,6.48
2023-07-29T19:36:25.059Z,7.59
2023-07-29T19:38:52.842Z,5.40
2023-07-29T19:41:20.613Z,10.63
2023-07-29T19:43:51.631Z,11.32
2023-07-29T19:46:38.229Z,5.84
2023-07-29T19:49:06.963Z,2.61
2023-07-29T19:51:36.393Z,2.47
2023-07-29T19:54:04.362Z,2.43
2023-07-29T19:56:32.151Z,2.49
2023-07-29T19:58:59.844Z,2.12
2023-07-29T20:01:27.626Z,1.98
2023-07-29T20:03:55.441Z,1.84
2023-07-29T20:06:23.248Z,1.98
2023-07-29T20:08:55.001Z,1.91
2023-07-29T20:11:23.161Z,1.87
2023-07-29T20:13:50.904Z,1.90
2023-07-29T20:16:18.705Z,1.61
2023-07-29T20:18:46.483Z,1.67
2023-07-29T20:21:14.293Z,1.99
2023-07-29T20:23:42.132Z,2.11
2023-07-29T20:26:11.496Z,2.08
2023-07-29T20:28:39.389Z,2.03
2023-07-29T20:31:07.688Z,2.13
2023-07-29T20:33:36.247Z,1.85
2023-07-29T20:36:04.010Z,1.89
2023-07-29T20:38:31.843Z,2.05
2023-07-29T20:40:59.626Z,2.04
2023-07-29T20:43:28.813Z,1.83
2023-07-29T20:45:56.651Z,2.00
2023-07-29T20:48:27.704Z,1.92
2023-07-29T20:50:56.729Z,1.92
2023-07-29T20:53:24.560Z,2.05
2023-07-29T20:55:52.539Z,2.25
2023-07-29T20:58:20.355Z,2.43
2023-07-29T21:00:49.609Z,2.62
2023-07-29T21:03:17.525Z,2.64
2023-07-29T21:05:46.823Z,2.95
2023-07-29T21:08:14.665Z,2.59
2023-07-29T21:10:42.460Z,2.49
2023-07-29T21:13:11.424Z,2.73
2023-07-29T21:15:39.290Z,2.71
2023-07-29T21:18:08.525Z,2.57
2023-07-29T21:20:36.304Z,2.80
2023-07-29T21:23:04.109Z,3.13
2023-07-29T21:25:31.867Z,3.11
2023-07-29T21:27:59.755Z,3.10
2023-07-29T21:30:31.374Z,3.07
2023-07-29T21:32:59.466Z,3.15
2023-07-29T21:35:28.615Z,3.03
2023-07-29T21:37:56.401Z,3.16
2023-07-29T21:40:27.265Z,3.10
2023-07-29T21:42:55.156Z,3.20
2023-07-29T21:45:22.948Z,3.33
2023-07-29T21:47:50.764Z,3.65
2023-07-29T21:50:18.614Z,3.43
2023-07-29T21:52:48.204Z,3.43
2023-07-29T21:55:15.989Z,3.54
2023-07-29T21:57:43.803Z,3.80
2023-07-29T22:00:12.050Z,3.62
2023-07-29T22:02:39.832Z,3.79
2023-07-29T22:05:07.891Z,3.80
2023-07-29T22:07:35.625Z,3.71
2023-07-29T22:10:04.945Z,3.70
2023-07-29T22:12:33.093Z,4.04
2023-07-29T22:15:00.963Z,3.89
2023-07-29T22:17:29.115Z,3.82
2023-07-29T22:19:56.954Z,4.07
2023-07-29T22:22:24.698Z,4.13
2023-07-29T22:24:53.600Z,4.19
2023-07-29T22:27:22.728Z,3.99
2023-07-29T22:29:50.494Z,4.13
2023-07-29T22:32:18.286Z,4.31
2023-07-29T22:34:46.084Z,4.30
2023-07-29T22:37:13.802Z,4.15
2023-07-29T22:39:41.842Z,4.42
2023-07-29T22:42:09.561Z,4.29
2023-07-29T22:44:38.721Z,4.30
2023-07-29T22:47:06.759Z,4.44
2023-07-29T22:49:34.465Z,4.55
2023-07-29T22:52:02.251Z,4.50
2023-07-29T22:54:29.989Z,4.31
2023-07-29T22:56:57.716Z,4.73
2023-07-29T22:59:25.558Z,4.86
2023-07-29T23:01:54.894Z,4.56
2023-07-29T23:04:22.704Z,4.50
2023-07-29T23:06:50.569Z,4.53
2023-07-29T23:09:18.319Z,4.80
2023-07-29T23:11:46.067Z,5.16
2023-07-29T23:14:13.835Z,4.73
2023-07-29T23:16:41.551Z,4.51
2023-07-29T23:19:10.663Z,4.88
2023-07-29T23:21:38.673Z,4.66
2023-07-29T23:24:06.676Z,4.81
2023-07-29T23:26:34.435Z,4.70
2023-07-29T23:29:02.169Z,4.76
2023-07-29T23:31:29.960Z,4.97
2023-07-29T23:33:57.768Z,4.64
2023-07-29T23:36:27.011Z,4.84
2023-07-29T23:38:54.799Z,4.63
2023-07-29T23:41:22.572Z,4.66
2023-07-29T23:43:50.340Z,4.53
2023-07-29T23:46:18.056Z,4.86
2023-07-29T23:48:45.905Z,4.95
2023-07-29T23:51:13.634Z,4.90
2023-07-29T23:53:42.741Z,4.89
2023-07-29T23:56:10.448Z,4.94
2023-07-29T23:58:38.214Z,5.06
